sensor_id;sensor_type;location;lat;lon;timestamp;pressure;altitude;pressure_sealevel;temperature;humidity
59759;BME280;61150;62.516;17.862;2022-07-29T00:02:17;101688.57;;;11.85;60.62
59759;BME280;61150;62.516;17.862;2022-07-29T00:04:46;101684.73;;;11.79;60.53
59759;BME280;61150;62.516;17.862;2022-07-29T00:07:15;101686.10;;;11.91;60.38
59759;BME280;61150;62.516;17.862;2022-07-29T00:09:44;101690.23;;;11.89;60.43
59759;BME280;61150;62.516;17.862;2022-07-29T00:12:13;101691.25;;;11.88;60.44
59759;BME280;61150;62.516;17.862;2022-07-29T00:14:42;101691.23;;;11.82;60.46
59759;BME280;61150;62.516;17.862;2022-07-29T00:17:10;101695.21;;;11.86;60.47
59759;BME280;61150;62.516;17.862;2022-07-29T00:19:40;101692.74;;;11.85;60.64
59759;BME280;61150;62.516;17.862;2022-07-29T00:22:08;101693.14;;;11.83;60.65
59759;BME280;61150;62.516;17.862;2022-07-29T00:24:37;101692.76;;;11.85;60.71
59759;BME280;61150;62.516;17.862;2022-07-29T00:27:07;101693.68;;;11.73;60.77
59759;BME280;61150;62.516;17.862;2022-07-29T00:29:37;101693.57;;;11.74;60.90
59759;BME280;61150;62.516;17.862;2022-07-29T00:32:06;101692.27;;;11.69;61.09
59759;BME280;61150;62.516;17.862;2022-07-29T00:34:34;101689.68;;;11.73;61.04
59759;BME280;61150;62.516;17.862;2022-07-29T00:37:03;101689.34;;;11.60;61.11
59759;BME280;61150;62.516;17.862;2022-07-29T00:39:32;101686.10;;;11.68;61.22
59759;BME280;61150;62.516;17.862;2022-07-29T00:42:02;101689.76;;;11.66;61.31
59759;BME280;61150;62.516;17.862;2022-07-29T00:44:36;101689.35;;;11.49;61.30
59759;BME280;61150;62.516;17.862;2022-07-29T00:47:08;101690.69;;;11.54;61.27
59759;BME280;61150;62.516;17.862;2022-07-29T00:49:38;101689.60;;;11.43;61.37
59759;BME280;61150;62.516;17.862;2022-07-29T00:52:10;101691.09;;;11.45;61.40
59759;BME280;61150;62.516;17.862;2022-07-29T00:54:40;101693.39;;;11.49;61.44
59759;BME280;61150;62.516;17.862;2022-07-29T00:57:08;101691.02;;;11.45;61.47
59759;BME280;61150;62.516;17.862;2022-07-29T00:59:37;101691.80;;;11.48;61.57
59759;BME280;61150;62.516;17.862;2022-07-29T01:03:02;101694.60;;;11.69;61.06
59759;BME280;61150;62.516;17.862;2022-07-29T01:05:31;101696.73;;;11.67;60.96
59759;BME280;61150;62.516;17.862;2022-07-29T01:08:01;101699.26;;;11.77;60.90
59759;BME280;61150;62.516;17.862;2022-07-29T01:10:30;101701.56;;;11.75;60.94
59759;BME280;61150;62.516;17.862;2022-07-29T01:13:01;101700.34;;;11.72;60.97
59759;BME280;61150;62.516;17.862;2022-07-29T01:15:30;101704.59;;;11.74;61.02
59759;BME280;61150;62.516;17.862;2022-07-29T01:18:03;101704.62;;;11.70;61.23
59759;BME280;61150;62.516;17.862;2022-07-29T01:20:52;101701.85;;;11.68;61.27
59759;BME280;61150;62.516;17.862;2022-07-29T01:23:40;101703.03;;;11.67;61.46
59759;BME280;61150;62.516;17.862;2022-07-29T01:26:31;101705.37;;;11.61;61.49
59759;BME280;61150;62.516;17.862;2022-07-29T01:29:05;101703.65;;;11.58;61.66
59759;BME280;61150;62.516;17.862;2022-07-29T01:31:41;101702.67;;;11.59;61.76
59759;BME280;61150;62.516;17.862;2022-07-29T01:34:15;101705.44;;;11.37;61.91
59759;BME280;61150;62.516;17.862;2022-07-29T01:36:50;101705.55;;;11.49;61.99
59759;BME280;61150;62.516;17.862;2022-07-29T01:39:27;101705.08;;;11.54;62.07
59759;BME280;61150;62.516;17.862;2022-07-29T01:42:01;101702.52;;;11.57;62.05
59759;BME280;61150;62.516;17.862;2022-07-29T01:44:37;101703.09;;;11.48;62.13
59759;BME280;61150;62.516;17.862;2022-07-29T01:47:12;101702.50;;;11.39;62.28
59759;BME280;61150;62.516;17.862;2022-07-29T01:49:46;101701.02;;;11.41;62.36
59759;BME280;61150;62.516;17.862;2022-07-29T01:52:20;101703.45;;;11.36;62.34
59759;BME280;61150;62.516;17.862;2022-07-29T01:54:54;101705.32;;;11.31;62.22
59759;BME280;61150;62.516;17.862;2022-07-29T01:57:26;101710.79;;;11.39;62.24
59759;BME280;61150;62.516;17.862;2022-07-29T01:59:58;101708.72;;;11.35;62.30
59759;BME280;61150;62.516;17.862;2022-07-29T02:02:28;101713.22;;;11.28;62.46
59759;BME280;61150;62.516;17.862;2022-07-29T02:04:59;101708.28;;;11.26;62.45
59759;BME280;61150;62.516;17.862;2022-07-29T02:07:30;101709.51;;;11.29;62.32
59759;BME280;61150;62.516;17.862;2022-07-29T02:10:02;101710.13;;;11.23;62.39
59759;BME280;61150;62.516;17.862;2022-07-29T02:12:32;101708.34;;;11.14;62.55
59759;BME280;61150;62.516;17.862;2022-07-29T02:15:04;101706.16;;;11.19;62.67
59759;BME280;61150;62.516;17.862;2022-07-29T02:17:40;101708.92;;;11.17;62.69
59759;BME280;61150;62.516;17.862;2022-07-29T02:20:12;101711.44;;;11.16;62.63
59759;BME280;61150;62.516;17.862;2022-07-29T02:22:41;101705.12;;;11.19;62.82
59759;BME280;61150;62.516;17.862;2022-07-29T02:25:12;101714.28;;;11.16;62.73
59759;BME280;61150;62.516;17.862;2022-07-29T02:27:43;101712.83;;;11.16;62.71
59759;BME280;61150;62.516;17.862;2022-07-29T02:30:13;101710.45;;;11.09;62.66
59759;BME280;61150;62.516;17.862;2022-07-29T02:32:43;101712.57;;;11.20;62.70
59759;BME280;61150;62.516;17.862;2022-07-29T02:35:14;101714.59;;;11.19;62.55
59759;BME280;61150;62.516;17.862;2022-07-29T02:37:44;101716.95;;;11.06;62.59
59759;BME280;61150;62.516;17.862;2022-07-29T02:40:15;101718.22;;;11.07;62.41
59759;BME280;61150;62.516;17.862;2022-07-29T02:42:45;101719.07;;;11.03;62.41
59759;BME280;61150;62.516;17.862;2022-07-29T02:45:15;101718.46;;;11.01;62.37
59759;BME280;61150;62.516;17.862;2022-07-29T02:47:47;101714.12;;;11.04;62.35
59759;BME280;61150;62.516;17.862;2022-07-29T02:50:22;101716.46;;;11.13;62.14
59759;BME280;61150;62.516;17.862;2022-07-29T02:53:01;101720.45;;;11.14;62.10
59759;BME280;61150;62.516;17.862;2022-07-29T02:55:33;101724.07;;;11.18;61.83
59759;BME280;61150;62.516;17.862;2022-07-29T02:58:05;101723.86;;;11.25;61.79
59759;BME280;61150;62.516;17.862;2022-07-29T03:00:37;101725.26;;;11.20;61.82
59759;BME280;61150;62.516;17.862;2022-07-29T03:03:10;101725.75;;;11.16;61.69
59759;BME280;61150;62.516;17.862;2022-07-29T03:05:40;101730.59;;;11.17;61.70
59759;BME280;61150;62.516;17.862;2022-07-29T03:08:11;101732.09;;;11.26;61.54
59759;BME280;61150;62.516;17.862;2022-07-29T03:10:43;101734.96;;;11.24;61.63
59759;BME280;61150;62.516;17.862;2022-07-29T03:13:12;101732.50;;;11.29;61.53
59759;BME280;61150;62.516;17.862;2022-07-29T03:15:43;101733.12;;;11.24;61.66
59759;BME280;61150;62.516;17.862;2022-07-29T03:18:14;101737.27;;;11.31;61.38
59759;BME280;61150;62.516;17.862;2022-07-29T03:20:44;101735.14;;;11.27;61.55
59759;BME280;61150;62.516;17.862;2022-07-29T03:23:18;101737.81;;;11.38;61.50
59759;BME280;61150;62.516;17.862;2022-07-29T03:25:47;101740.71;;;11.32;61.25
59759;BME280;61150;62.516;17.862;2022-07-29T03:28:16;101742.77;;;11.40;61.18
59759;BME280;61150;62.516;17.862;2022-07-29T03:30:44;101740.62;;;11.49;61.25
59759;BME280;61150;62.516;17.862;2022-07-29T03:33:13;101741.39;;;11.38;61.01
59759;BME280;61150;62.516;17.862;2022-07-29T03:35:42;101739.08;;;11.51;60.77
59759;BME280;61150;62.516;17.862;2022-07-29T03:38:11;101734.06;;;11.56;60.69
59759;BME280;61150;62.516;17.862;2022-07-29T03:40:44;101738.36;;;11.55;60.50
59759;BME280;61150;62.516;17.862;2022-07-29T03:43:15;101736.37;;;11.55;60.33
59759;BME280;61150;62.516;17.862;2022-07-29T03:45:49;101734.34;;;11.55;60.16
59759;BME280;61150;62.516;17.862;2022-07-29T03:48:22;101741.48;;;11.66;60.28
59759;BME280;61150;62.516;17.862;2022-07-29T03:50:51;101739.67;;;11.71;60.07
59759;BME280;61150;62.516;17.862;2022-07-29T03:53:20;101736.26;;;11.71;59.95
59759;BME280;61150;62.516;17.862;2022-07-29T03:55:53;101735.80;;;11.83;59.67
59759;BME280;61150;62.516;17.862;2022-07-29T03:58:22;101740.60;;;11.88;59.19
59759;BME280;61150;62.516;17.862;2022-07-29T04:04:17;101728.32;;;11.53;59.52
59759;BME280;61150;62.516;17.862;2022-07-29T04:06:46;101726.88;;;11.54;59.64
59759;BME280;61150;62.516;17.862;2022-07-29T04:09:15;101725.15;;;11.56;59.51
59759;BME280;61150;62.516;17.862;2022-07-29T04:11:45;101724.80;;;11.73;59.40
59759;BME280;61150;62.516;17.862;2022-07-29T04:14:14;101728.37;;;11.73;58.99
59759;BME280;61150;62.516;17.862;2022-07-29T04:16:43;101728.94;;;11.89;58.39
59759;BME280;61150;62.516;17.862;2022-07-29T04:19:12;101728.09;;;12.03;57.90
59759;BME280;61150;62.516;17.862;2022-07-29T04:21:41;101728.14;;;12.09;57.58
59759;BME280;61150;62.516;17.862;2022-07-29T04:24:09;101731.15;;;12.26;56.41
59759;BME280;61150;62.516;17.862;2022-07-29T04:26:38;101732.63;;;12.42;56.43
59759;BME280;61150;62.516;17.862;2022-07-29T04:29:07;101732.30;;;12.63;56.33
59759;BME280;61150;62.516;17.862;2022-07-29T04:31:36;101731.95;;;12.91;54.69
59759;BME280;61150;62.516;17.862;2022-07-29T04:34:05;101735.10;;;12.96;55.31
59759;BME280;61150;62.516;17.862;2022-07-29T04:36:34;101736.85;;;13.00;55.18
59759;BME280;61150;62.516;17.862;2022-07-29T04:39:03;101736.07;;;13.04;54.89
59759;BME280;61150;62.516;17.862;2022-07-29T04:41:32;101734.99;;;13.23;55.02
59759;BME280;61150;62.516;17.862;2022-07-29T04:44:00;101732.06;;;13.40;54.53
59759;BME280;61150;62.516;17.862;2022-07-29T04:46:29;101735.08;;;14.01;53.63
59759;BME280;61150;62.516;17.862;2022-07-29T04:48:58;101730.71;;;14.98;50.67
59759;BME280;61150;62.516;17.862;2022-07-29T04:51:27;101728.25;;;15.38;49.36
59759;BME280;61150;62.516;17.862;2022-07-29T04:53:56;101727.82;;;15.11;49.02
59759;BME280;61150;62.516;17.862;2022-07-29T04:56:24;101725.49;;;14.80;49.36
59759;BME280;61150;62.516;17.862;2022-07-29T04:58:53;101728.82;;;14.53;49.34
59759;BME280;61150;62.516;17.862;2022-07-29T05:01:22;101730.44;;;14.35;50.08
59759;BME280;61150;62.516;17.862;2022-07-29T05:03:51;101729.50;;;14.23;50.57
59759;BME280;61150;62.516;17.862;2022-07-29T05:06:20;101732.28;;;14.22;50.95
59759;BME280;61150;62.516;17.862;2022-07-29T05:08:49;101731.02;;;14.48;50.45
59759;BME280;61150;62.516;17.862;2022-07-29T05:11:18;101729.07;;;14.64;50.76
59759;BME280;61150;62.516;17.862;2022-07-29T05:13:46;101727.99;;;14.69;51.31
59759;BME280;61150;62.516;17.862;2022-07-29T05:16:15;101725.98;;;15.21;52.11
59759;BME280;61150;62.516;17.862;2022-07-29T05:18:43;101727.05;;;17.73;49.18
59759;BME280;61150;62.516;17.862;2022-07-29T05:21:12;101720.25;;;20.36;43.24
59759;BME280;61150;62.516;17.862;2022-07-29T05:23:41;101718.68;;;22.06;38.18
59759;BME280;61150;62.516;17.862;2022-07-29T05:26:10;101713.50;;;23.40;35.34
59759;BME280;61150;62.516;17.862;2022-07-29T05:28:39;101710.14;;;24.11;33.34
59759;BME280;61150;62.516;17.862;2022-07-29T05:31:07;101705.49;;;24.61;31.84
59759;BME280;61150;62.516;17.862;2022-07-29T05:33:36;101704.85;;;24.87;30.54
59759;BME280;61150;62.516;17.862;2022-07-29T05:36:05;101708.08;;;25.10;31.05
59759;BME280;61150;62.516;17.862;2022-07-29T05:38:35;101708.99;;;23.94;32.45
59759;BME280;61150;62.516;17.862;2022-07-29T05:41:05;101712.81;;;22.32;33.91
59759;BME280;61150;62.516;17.862;2022-07-29T05:43:34;101718.76;;;20.93;36.07
59759;BME280;61150;62.516;17.862;2022-07-29T05:46:03;101720.15;;;20.07;38.92
59759;BME280;61150;62.516;17.862;2022-07-29T05:48:33;101722.13;;;19.74;39.83
59759;BME280;61150;62.516;17.862;2022-07-29T05:51:02;101723.82;;;20.70;38.62
59759;BME280;61150;62.516;17.862;2022-07-29T05:53:32;101720.97;;;21.87;35.92
59759;BME280;61150;62.516;17.862;2022-07-29T05:56:03;101721.78;;;21.95;34.48
59759;BME280;61150;62.516;17.862;2022-07-29T05:58:33;101721.35;;;21.12;35.37
59759;BME280;61150;62.516;17.862;2022-07-29T06:01:03;101720.80;;;20.28;36.10
59759;BME280;61150;62.516;17.862;2022-07-29T06:03:32;101721.29;;;19.83;37.73
59759;BME280;61150;62.516;17.862;2022-07-29T06:06:02;101725.72;;;19.43;38.01
59759;BME280;61150;62.516;17.862;2022-07-29T06:08:31;101727.25;;;19.16;38.89
59759;BME280;61150;62.516;17.862;2022-07-29T06:10:59;101727.60;;;19.12;38.41
59759;BME280;61150;62.516;17.862;2022-07-29T06:13:28;101730.80;;;19.35;39.05
59759;BME280;61150;62.516;17.862;2022-07-29T06:15:57;101733.46;;;19.49;38.96
59759;BME280;61150;62.516;17.862;2022-07-29T06:18:25;101732.16;;;19.53;38.41
59759;BME280;61150;62.516;17.862;2022-07-29T06:20:54;101736.28;;;19.48;38.86
59759;BME280;61150;62.516;17.862;2022-07-29T06:23:23;101731.42;;;19.20;38.52
59759;BME280;61150;62.516;17.862;2022-07-29T06:25:52;101726.98;;;18.99;40.97
59759;BME280;61150;62.516;17.862;2022-07-29T06:28:20;101731.40;;;18.80;40.35
59759;BME280;61150;62.516;17.862;2022-07-29T06:30:49;101730.97;;;18.72;41.33
59759;BME280;61150;62.516;17.862;2022-07-29T06:33:18;101730.56;;;18.61;41.25
59759;BME280;61150;62.516;17.862;2022-07-29T06:35:47;101730.19;;;18.75;41.77
59759;BME280;61150;62.516;17.862;2022-07-29T06:38:16;101730.31;;;18.50;41.57
59759;BME280;61150;62.516;17.862;2022-07-29T06:40:45;101729.88;;;18.55;41.85
59759;BME280;61150;62.516;17.862;2022-07-29T06:43:15;101732.32;;;18.60;40.54
59759;BME280;61150;62.516;17.862;2022-07-29T06:45:43;101734.43;;;18.52;40.41
59759;BME280;61150;62.516;17.862;2022-07-29T06:48:12;101735.11;;;18.43;40.06
59759;BME280;61150;62.516;17.862;2022-07-29T06:50:41;101735.79;;;18.35;40.66
59759;BME280;61150;62.516;17.862;2022-07-29T06:53:10;101740.69;;;18.52;41.65
59759;BME280;61150;62.516;17.862;2022-07-29T06:55:38;101744.79;;;18.52;43.26
59759;BME280;61150;62.516;17.862;2022-07-29T06:58:07;101749.41;;;18.55;44.57
59759;BME280;61150;62.516;17.862;2022-07-29T07:02:51;101752.96;;;18.56;44.72
59759;BME280;61150;62.516;17.862;2022-07-29T07:05:21;101752.51;;;18.44;44.14
59759;BME280;61150;62.516;17.862;2022-07-29T07:07:49;101754.77;;;18.26;45.30
59759;BME280;61150;62.516;17.862;2022-07-29T07:10:18;101757.04;;;18.08;45.68
59759;BME280;61150;62.516;17.862;2022-07-29T07:12:47;101756.14;;;17.74;46.40
59759;BME280;61150;62.516;17.862;2022-07-29T07:15:15;101758.06;;;17.72;46.64
59759;BME280;61150;62.516;17.862;2022-07-29T07:17:44;101758.91;;;17.85;47.17
59759;BME280;61150;62.516;17.862;2022-07-29T07:20:13;101766.41;;;17.73;47.08
59759;BME280;61150;62.516;17.862;2022-07-29T07:22:42;101761.41;;;17.77;47.30
59759;BME280;61150;62.516;17.862;2022-07-29T07:25:11;101757.53;;;17.77;46.57
59759;BME280;61150;62.516;17.862;2022-07-29T07:27:39;101760.09;;;17.94;47.82
59759;BME280;61150;62.516;17.862;2022-07-29T07:30:08;101759.93;;;17.86;47.48
59759;BME280;61150;62.516;17.862;2022-07-29T07:32:37;101762.92;;;17.84;47.56
59759;BME280;61150;62.516;17.862;2022-07-29T07:35:07;101760.05;;;18.02;48.17
59759;BME280;61150;62.516;17.862;2022-07-29T07:37:38;101763.14;;;17.89;48.00
59759;BME280;61150;62.516;17.862;2022-07-29T07:40:09;101762.50;;;17.98;47.69
59759;BME280;61150;62.516;17.862;2022-07-29T07:42:39;101757.89;;;17.93;47.90
59759;BME280;61150;62.516;17.862;2022-07-29T07:45:09;101757.89;;;17.93;47.42
59759;BME280;61150;62.516;17.862;2022-07-29T07:47:38;101760.51;;;17.94;47.78
59759;BME280;61150;62.516;17.862;2022-07-29T07:50:09;101761.10;;;18.10;47.97
59759;BME280;61150;62.516;17.862;2022-07-29T07:52:46;101760.11;;;18.10;45.39
59759;BME280;61150;62.516;17.862;2022-07-29T07:55:15;101757.17;;;18.21;45.84
59759;BME280;61150;62.516;17.862;2022-07-29T07:57:44;101751.63;;;18.20;44.82
59759;BME280;61150;62.516;17.862;2022-07-29T08:00:14;101758.90;;;18.15;44.53
59759;BME280;61150;62.516;17.862;2022-07-29T08:02:43;101757.43;;;17.95;45.24
59759;BME280;61150;62.516;17.862;2022-07-29T08:05:12;101760.91;;;17.90;45.24
59759;BME280;61150;62.516;17.862;2022-07-29T08:07:43;101759.75;;;17.89;45.03
59759;BME280;61150;62.516;17.862;2022-07-29T08:10:13;101762.27;;;17.92;45.95
59759;BME280;61150;62.516;17.862;2022-07-29T08:12:41;101760.22;;;18.15;43.44
59759;BME280;61150;62.516;17.862;2022-07-29T08:15:10;101756.71;;;18.46;43.68
59759;BME280;61150;62.516;17.862;2022-07-29T08:17:39;101761.61;;;18.69;45.65
59759;BME280;61150;62.516;17.862;2022-07-29T08:20:08;101761.39;;;18.93;45.04
59759;BME280;61150;62.516;17.862;2022-07-29T08:22:36;101764.13;;;19.34;46.70
59759;BME280;61150;62.516;17.862;2022-07-29T08:25:06;101764.59;;;19.72;43.67
59759;BME280;61150;62.516;17.862;2022-07-29T08:27:36;101766.53;;;19.86;43.82
59759;BME280;61150;62.516;17.862;2022-07-29T08:30:05;101765.58;;;20.04;45.54
59759;BME280;61150;62.516;17.862;2022-07-29T08:32:35;101768.21;;;20.18;44.86
59759;BME280;61150;62.516;17.862;2022-07-29T08:35:04;101771.93;;;20.13;43.97
59759;BME280;61150;62.516;17.862;2022-07-29T08:37:32;101774.96;;;19.89;45.21
59759;BME280;61150;62.516;17.862;2022-07-29T08:40:01;101779.13;;;19.69;44.31
59759;BME280;61150;62.516;17.862;2022-07-29T08:42:30;101788.21;;;19.37;45.10
59759;BME280;61150;62.516;17.862;2022-07-29T08:44:59;101794.88;;;19.30;45.42
59759;BME280;61150;62.516;17.862;2022-07-29T08:47:29;101795.84;;;19.23;45.10
59759;BME280;61150;62.516;17.862;2022-07-29T08:49:58;101794.86;;;19.06;46.12
59759;BME280;61150;62.516;17.862;2022-07-29T08:52:29;101799.34;;;18.86;46.90
59759;BME280;61150;62.516;17.862;2022-07-29T08:55:01;101800.45;;;19.25;49.78
59759;BME280;61150;62.516;17.862;2022-07-29T08:57:32;101797.98;;;19.80;47.50
59759;BME280;61150;62.516;17.862;2022-07-29T09:00:04;101793.51;;;19.62;45.30
59759;BME280;61150;62.516;17.862;2022-07-29T09:02:39;101803.48;;;19.34;45.37
59759;BME280;61150;62.516;17.862;2022-07-29T09:05:09;101799.06;;;19.45;46.72
59759;BME280;61150;62.516;17.862;2022-07-29T09:07:38;101794.73;;;20.02;45.43
59759;BME280;61150;62.516;17.862;2022-07-29T09:10:07;101792.02;;;20.33;46.37
59759;BME280;61150;62.516;17.862;2022-07-29T09:12:37;101789.01;;;20.63;47.30
59759;BME280;61150;62.516;17.862;2022-07-29T09:15:06;101795.30;;;20.94;45.80
59759;BME280;61150;62.516;17.862;2022-07-29T09:17:40;101794.10;;;21.13;45.39
59759;BME280;61150;62.516;17.862;2022-07-29T09:20:10;101793.68;;;21.24;45.21
59759;BME280;61150;62.516;17.862;2022-07-29T09:22:39;101795.65;;;21.38;41.02
59759;BME280;61150;62.516;17.862;2022-07-29T09:25:07;101796.55;;;21.41;43.89
59759;BME280;61150;62.516;17.862;2022-07-29T09:27:36;101793.88;;;21.59;41.43
59759;BME280;61150;62.516;17.862;2022-07-29T09:30:07;101790.62;;;21.73;41.28
59759;BME280;61150;62.516;17.862;2022-07-29T09:32:54;101794.62;;;21.75;40.98
59759;BME280;61150;62.516;17.862;2022-07-29T09:35:25;101789.86;;;21.97;41.84
59759;BME280;61150;62.516;17.862;2022-07-29T09:37:54;101793.90;;;22.19;42.36
59759;BME280;61150;62.516;17.862;2022-07-29T09:40:23;101782.35;;;21.51;39.80
59759;BME280;61150;62.516;17.862;2022-07-29T09:42:53;101780.83;;;20.77;40.59
59759;BME280;61150;62.516;17.862;2022-07-29T09:45:28;101783.46;;;20.60;41.66
59759;BME280;61150;62.516;17.862;2022-07-29T09:47:57;101785.11;;;20.20;42.82
59759;BME280;61150;62.516;17.862;2022-07-29T09:50:35;101778.80;;;20.02;45.09
59759;BME280;61150;62.516;17.862;2022-07-29T09:53:03;101784.04;;;19.89;45.36
59759;BME280;61150;62.516;17.862;2022-07-29T09:55:32;101786.88;;;20.30;44.97
59759;BME280;61150;62.516;17.862;2022-07-29T09:58:17;101786.54;;;20.00;44.76
59759;BME280;61150;62.516;17.862;2022-07-29T10:02:48;101785.96;;;19.69;42.16
59759;BME280;61150;62.516;17.862;2022-07-29T10:05:20;101783.99;;;19.52;41.69
59759;BME280;61150;62.516;17.862;2022-07-29T10:07:49;101783.47;;;19.07;44.69
59759;BME280;61150;62.516;17.862;2022-07-29T10:10:20;101782.82;;;18.66;44.66
59759;BME280;61150;62.516;17.862;2022-07-29T10:12:52;101783.97;;;18.63;45.89
59759;BME280;61150;62.516;17.862;2022-07-29T10:15:23;101787.98;;;18.75;46.62
59759;BME280;61150;62.516;17.862;2022-07-29T10:17:52;101787.27;;;18.54;44.61
59759;BME280;61150;62.516;17.862;2022-07-29T10:20:21;101787.85;;;18.86;45.80
59759;BME280;61150;62.516;17.862;2022-07-29T10:22:52;101783.37;;;19.26;47.51
59759;BME280;61150;62.516;17.862;2022-07-29T10:25:22;101779.88;;;19.57;45.59
59759;BME280;61150;62.516;17.862;2022-07-29T10:27:52;101775.44;;;19.87;44.02
59759;BME280;61150;62.516;17.862;2022-07-29T10:30:24;101772.68;;;20.27;45.16
59759;BME280;61150;62.516;17.862;2022-07-29T10:33:02;101771.63;;;20.45;43.70
59759;BME280;61150;62.516;17.862;2022-07-29T10:35:45;101768.67;;;20.77;45.91
59759;BME280;61150;62.516;17.862;2022-07-29T10:38:53;101768.55;;;21.06;43.66
59759;BME280;61150;62.516;17.862;2022-07-29T10:41:37;101764.27;;;21.28;43.46
59759;BME280;61150;62.516;17.862;2022-07-29T10:44:12;101758.51;;;21.47;45.01
59759;BME280;61150;62.516;17.862;2022-07-29T10:46:41;101762.25;;;21.50;42.44
59759;BME280;61150;62.516;17.862;2022-07-29T10:49:11;101766.49;;;20.85;41.25
59759;BME280;61150;62.516;17.862;2022-07-29T10:51:58;101766.26;;;20.28;40.29
59759;BME280;61150;62.516;17.862;2022-07-29T10:54:45;101766.99;;;19.55;41.10
59759;BME280;61150;62.516;17.862;2022-07-29T10:57:16;101764.91;;;18.88;43.96
59759;BME280;61150;62.516;17.862;2022-07-29T10:59:47;101763.08;;;18.61;46.40
59759;BME280;61150;62.516;17.862;2022-07-29T11:02:48;101765.71;;;18.91;47.81
59759;BME280;61150;62.516;17.862;2022-07-29T11:05:18;101766.18;;;18.84;48.36
59759;BME280;61150;62.516;17.862;2022-07-29T11:08:23;101761.70;;;19.30;47.87
59759;BME280;61150;62.516;17.862;2022-07-29T11:10:53;101754.96;;;19.65;47.02
59759;BME280;61150;62.516;17.862;2022-07-29T11:13:59;101750.00;;;20.15;43.71
59759;BME280;61150;62.516;17.862;2022-07-29T11:16:59;101745.34;;;20.33;40.71
59759;BME280;61150;62.516;17.862;2022-07-29T11:19:29;101743.47;;;20.45;41.34
59759;BME280;61150;62.516;17.862;2022-07-29T11:21:58;101742.78;;;20.33;43.40
59759;BME280;61150;62.516;17.862;2022-07-29T11:24:29;101741.15;;;20.56;44.60
59759;BME280;61150;62.516;17.862;2022-07-29T11:27:07;101741.31;;;20.46;44.40
59759;BME280;61150;62.516;17.862;2022-07-29T11:29:39;101744.86;;;20.71;44.63
59759;BME280;61150;62.516;17.862;2022-07-29T11:32:09;101746.28;;;20.71;43.33
59759;BME280;61150;62.516;17.862;2022-07-29T11:34:38;101751.10;;;20.82;41.26
59759;BME280;61150;62.516;17.862;2022-07-29T11:37:23;101749.43;;;20.85;39.64
59759;BME280;61150;62.516;17.862;2022-07-29T11:40:12;101748.39;;;20.86;42.66
59759;BME280;61150;62.516;17.862;2022-07-29T11:42:43;101746.76;;;20.92;42.42
59759;BME280;61150;62.516;17.862;2022-07-29T11:45:16;101746.95;;;20.93;41.06
59759;BME280;61150;62.516;17.862;2022-07-29T11:47:50;101747.92;;;20.90;44.32
59759;BME280;61150;62.516;17.862;2022-07-29T11:50:30;101749.46;;;20.94;41.20
59759;BME280;61150;62.516;17.862;2022-07-29T11:53:02;101749.55;;;20.91;45.23
59759;BME280;61150;62.516;17.862;2022-07-29T11:55:30;101745.44;;;20.99;42.21
59759;BME280;61150;62.516;17.862;2022-07-29T11:58:00;101747.41;;;20.86;41.38
59759;BME280;61150;62.516;17.862;2022-07-29T12:00:31;101746.58;;;20.98;43.93
59759;BME280;61150;62.516;17.862;2022-07-29T12:03:06;101748.75;;;21.16;44.08
59759;BME280;61150;62.516;17.862;2022-07-29T12:05:38;101745.81;;;21.30;43.51
59759;BME280;61150;62.516;17.862;2022-07-29T12:08:11;101744.26;;;21.21;42.37
59759;BME280;61150;62.516;17.862;2022-07-29T12:10:40;101748.19;;;21.14;44.94
59759;BME280;61150;62.516;17.862;2022-07-29T12:13:10;101751.45;;;20.97;42.36
59759;BME280;61150;62.516;17.862;2022-07-29T12:15:39;101755.09;;;20.93;44.12
59759;BME280;61150;62.516;17.862;2022-07-29T12:18:11;101756.55;;;21.14;43.59
59759;BME280;61150;62.516;17.862;2022-07-29T12:20:40;101755.65;;;20.97;43.54
59759;BME280;61150;62.516;17.862;2022-07-29T12:23:09;101753.29;;;20.44;43.18
59759;BME280;61150;62.516;17.862;2022-07-29T12:25:40;101751.90;;;20.51;41.54
59759;BME280;61150;62.516;17.862;2022-07-29T12:28:11;101752.75;;;20.52;41.90
59759;BME280;61150;62.516;17.862;2022-07-29T12:30:42;101753.28;;;20.66;40.24
59759;BME280;61150;62.516;17.862;2022-07-29T12:33:14;101752.60;;;20.62;39.40
59759;BME280;61150;62.516;17.862;2022-07-29T12:35:45;101751.68;;;20.71;39.84
59759;BME280;61150;62.516;17.862;2022-07-29T12:38:15;101751.28;;;20.73;40.15
59759;BME280;61150;62.516;17.862;2022-07-29T12:40:44;101749.80;;;20.88;42.32
59759;BME280;61150;62.516;17.862;2022-07-29T12:43:15;101753.16;;;20.87;39.86
59759;BME280;61150;62.516;17.862;2022-07-29T12:45:45;101751.92;;;21.03;41.61
59759;BME280;61150;62.516;17.862;2022-07-29T12:48:14;101751.62;;;21.01;40.25
59759;BME280;61150;62.516;17.862;2022-07-29T12:51:01;101750.53;;;20.90;42.02
59759;BME280;61150;62.516;17.862;2022-07-29T12:53:30;101749.61;;;20.94;40.58
59759;BME280;61150;62.516;17.862;2022-07-29T12:56:00;101752.00;;;21.01;41.18
59759;BME280;61150;62.516;17.862;2022-07-29T12:58:32;101751.34;;;21.04;40.64
59759;BME280;61150;62.516;17.862;2022-07-29T13:02:55;101752.48;;;21.04;41.73
59759;BME280;61150;62.516;17.862;2022-07-29T13:05:39;101755.19;;;20.97;38.15
59759;BME280;61150;62.516;17.862;2022-07-29T13:08:12;101751.28;;;20.86;38.09
59759;BME280;61150;62.516;17.862;2022-07-29T13:10:42;101750.59;;;20.71;40.36
59759;BME280;61150;62.516;17.862;2022-07-29T13:13:12;101751.61;;;20.72;39.25